Time;durP1;ratioP1;P1;durP2;ratioP2;P2;SDS_P1;SDS_P2;PMS_P1;PMS_P2;Temp;Humidity;BMP_temperature;BMP_pressure;BME280_temperature;BME280_humidity;BME280_pressure;Samples;Min_cycle;Max_cycle;Signal;HPM_P1;HPM_P2
2023/12/02 00:01:06;;;;;;;122.30;55.20;;;;;;;;;;10488620;28;20128;-81
2023/12/02 00:06:07;;;;;;;116.10;52.80;;;;;;;;;;10493078;28;20107;-80
2023/12/02 00:11:08;;;;;;;106.93;49.67;;;;;;;;;;10492075;28;20108;-80
2023/12/02 00:16:10;;;;;;;107.60;50.23;;;;;;;;;;10487712;28;20143;-81
2023/12/02 00:21:11;;;;;;;114.30;50.07;;;;;;;;;;10498447;28;20051;-81
2023/12/02 00:26:12;;;;;;;98.73;47.03;;;;;;;;;;10497365;28;20039;-81
2023/12/02 00:31:13;;;;;;;107.43;48.60;;;;;;;;;;10482228;28;20028;-80
2023/12/02 00:36:14;;;;;;;97.87;44.07;;;;;;;;;;10489747;28;20036;-81
2023/12/02 00:41:15;;;;;;;102.07;47.13;;;;;;;;;;10490051;28;20119;-80
2023/12/02 00:46:17;;;;;;;112.83;49.80;;;;;;;;;;10486484;28;20831;-80
2023/12/02 00:51:18;;;;;;;108.00;47.10;;;;;;;;;;10492692;28;20124;-81
2023/12/02 00:56:19;;;;;;;100.40;46.77;;;;;;;;;;10487252;28;20036;-83
2023/12/02 01:01:20;;;;;;;110.97;47.93;;;;;;;;;;10477787;28;20029;-81
2023/12/02 01:06:21;;;;;;;104.70;46.50;;;;;;;;;;10492190;28;20120;-82
2023/12/02 01:11:22;;;;;;;101.50;46.93;;;;;;;;;;10481378;28;20583;-81
2023/12/02 01:16:23;;;;;;;103.30;45.73;;;;;;;;;;10488449;28;20154;-81
2023/12/02 01:21:24;;;;;;;97.53;46.13;;;;;;;;;;10499956;28;20119;-80
2023/12/02 01:26:25;;;;;;;96.37;43.03;;;;;;;;;;10512378;28;20047;-80
2023/12/02 01:31:27;;;;;;;102.57;46.50;;;;;;;;;;10466428;28;20068;-82
2023/12/02 01:36:28;;;;;;;101.47;44.37;;;;;;;;;;10489552;28;20032;-83
2023/12/02 01:41:31;;;;;;;101.43;46.10;;;;;;;;;;10489331;28;20077;-83
2023/12/02 01:46:32;;;;;;;94.97;43.00;;;;;;;;;;10479317;28;20036;-81
2023/12/02 01:51:33;;;;;;;88.53;41.37;;;;;;;;;;10490340;28;20056;-80
2023/12/02 01:56:35;;;;;;;86.87;40.90;;;;;;;;;;10489996;28;20040;-81
2023/12/02 02:01:42;;;;;;;93.53;41.50;;;;;;;;;;10494963;28;20047;-83
2023/12/02 02:06:44;;;;;;;82.03;38.63;;;;;;;;;;10486297;28;20039;-80
2023/12/02 02:11:54;;;;;;;86.37;39.20;;;;;;;;;;10484410;28;20036;-80
2023/12/02 02:16:55;;;;;;;80.10;37.93;;;;;;;;;;10493683;28;20424;-79
2023/12/02 02:21:57;;;;;;;78.57;35.93;;;;;;;;;;10483397;28;20043;-80
2023/12/02 02:26:58;;;;;;;76.27;36.57;;;;;;;;;;10481713;28;20112;-81
2023/12/02 02:31:59;;;;;;;78.20;37.33;;;;;;;;;;10482508;28;20029;-80
2023/12/02 02:37:06;;;;;;;79.00;35.90;;;;;;;;;;10489512;28;20024;-81
2023/12/02 02:42:08;;;;;;;76.83;35.40;;;;;;;;;;10486273;28;20052;-80
2023/12/02 02:47:09;;;;;;;81.63;37.20;;;;;;;;;;10479735;28;20027;-80
2023/12/02 02:52:10;;;;;;;81.07;35.77;;;;;;;;;;10483932;28;20039;-80
2023/12/02 02:57:12;;;;;;;77.80;36.87;;;;;;;;;;10482919;28;20040;-81
2023/12/02 03:02:13;;;;;;;86.30;37.30;;;;;;;;;;10479125;28;20103;-82
2023/12/02 03:07:14;;;;;;;83.37;36.37;;;;;;;;;;10496826;28;20312;-80
2023/12/02 03:12:15;;;;;;;78.50;35.77;;;;;;;;;;10498707;28;20040;-80
2023/12/02 03:17:16;;;;;;;77.07;35.10;;;;;;;;;;10471442;28;20028;-80
2023/12/02 03:22:23;;;;;;;73.10;33.53;;;;;;;;;;10487728;28;20139;-79
2023/12/02 03:27:24;;;;;;;71.03;32.40;;;;;;;;;;10469237;28;20508;-79
2023/12/02 03:32:25;;;;;;;74.40;34.33;;;;;;;;;;10485215;28;20501;-80
2023/12/02 03:37:26;;;;;;;64.93;31.67;;;;;;;;;;10496544;28;20115;-81
2023/12/02 03:42:28;;;;;;;71.53;31.47;;;;;;;;;;10494375;28;20121;-80
2023/12/02 03:47:29;;;;;;;64.70;27.80;;;;;;;;;;10491771;28;20436;-79
2023/12/02 03:52:30;;;;;;;63.07;29.90;;;;;;;;;;10502765;28;20131;-79
2023/12/02 03:57:31;;;;;;;58.70;27.07;;;;;;;;;;10501171;28;20065;-83
2023/12/02 04:02:32;;;;;;;59.87;27.53;;;;;;;;;;10463278;28;20043;-79
2023/12/02 04:07:33;;;;;;;58.83;26.53;;;;;;;;;;10486769;28;20031;-79
2023/12/02 04:12:35;;;;;;;55.33;24.07;;;;;;;;;;10487069;28;20045;-79
2023/12/02 04:17:36;;;;;;;54.03;23.63;;;;;;;;;;10492254;28;20039;-82
2023/12/02 04:22:38;;;;;;;51.83;24.73;;;;;;;;;;10490340;28;20024;-79
2023/12/02 04:27:41;;;;;;;50.00;21.23;;;;;;;;;;10510878;28;20063;-80
2023/12/02 04:32:42;;;;;;;42.27;19.60;;;;;;;;;;10480561;28;20060;-81
2023/12/02 04:37:43;;;;;;;39.60;16.97;;;;;;;;;;10489570;28;20024;-81
2023/12/02 04:42:44;;;;;;;41.43;18.37;;;;;;;;;;10476401;28;20053;-81
2023/12/02 04:47:45;;;;;;;38.83;17.83;;;;;;;;;;10491388;28;20463;-79
2023/12/02 04:52:47;;;;;;;37.13;17.73;;;;;;;;;;10485750;28;20140;-82
2023/12/02 04:57:48;;;;;;;35.90;16.10;;;;;;;;;;10498737;28;20033;-80
2023/12/02 05:02:49;;;;;;;27.60;13.73;;;;;;;;;;10483542;28;20056;-81
2023/12/02 05:07:50;;;;;;;28.60;12.87;;;;;;;;;;10492626;28;20058;-80
2023/12/02 05:12:51;;;;;;;31.80;13.67;;;;;;;;;;10491057;28;20451;-80
2023/12/02 05:18:00;;;;;;;27.10;12.77;;;;;;;;;;10503903;28;20155;-83
2023/12/02 05:23:01;;;;;;;30.47;14.37;;;;;;;;;;10492035;28;20115;-83
2023/12/02 05:28:02;;;;;;;30.83;13.17;;;;;;;;;;10501832;28;20032;-80
2023/12/02 05:33:04;;;;;;;28.47;14.17;;;;;;;;;;10490640;28;20044;-82
2023/12/02 05:38:05;;;;;;;24.67;11.13;;;;;;;;;;10488743;28;20380;-82
2023/12/02 05:43:13;;;;;;;26.37;12.27;;;;;;;;;;10479763;28;20056;-81
2023/12/02 05:48:14;;;;;;;24.83;10.43;;;;;;;;;;10496058;28;20552;-79
2023/12/02 05:53:15;;;;;;;25.90;11.60;;;;;;;;;;10490578;28;20358;-80
2023/12/02 05:58:16;;;;;;;27.10;10.83;;;;;;;;;;10488203;28;20032;-83
2023/12/02 06:03:17;;;;;;;32.37;14.27;;;;;;;;;;10498394;28;20499;-80
2023/12/02 06:08:18;;;;;;;54.43;24.73;;;;;;;;;;10508932;28;20027;-79
2023/12/02 06:13:19;;;;;;;30.83;14.37;;;;;;;;;;10476548;28;20140;-79
2023/12/02 06:18:21;;;;;;;20.00;9.43;;;;;;;;;;10487163;28;20059;-78
2023/12/02 06:23:22;;;;;;;14.60;7.00;;;;;;;;;;10488151;28;20016;-78
2023/12/02 06:28:23;;;;;;;17.33;7.50;;;;;;;;;;10501753;28;20029;-78
2023/12/02 06:33:24;;;;;;;17.13;7.63;;;;;;;;;;10483709;28;20519;-78
2023/12/02 06:38:25;;;;;;;17.40;8.07;;;;;;;;;;10490509;28;20028;-80
2023/12/02 06:43:27;;;;;;;23.47;10.00;;;;;;;;;;10490114;28;20139;-78
2023/12/02 06:48:28;;;;;;;21.43;8.67;;;;;;;;;;10501763;28;20111;-79
2023/12/02 06:53:29;;;;;;;17.30;7.97;;;;;;;;;;10487640;28;20140;-78
2023/12/02 06:58:30;;;;;;;18.73;9.33;;;;;;;;;;10495030;28;20024;-80
2023/12/02 07:03:31;;;;;;;23.90;9.83;;;;;;;;;;10494417;28;20036;-79
2023/12/02 07:08:32;;;;;;;16.10;6.43;;;;;;;;;;10496376;28;20025;-79
2023/12/02 07:13:34;;;;;;;17.57;7.53;;;;;;;;;;10485055;28;20131;-79
2023/12/02 07:18:35;;;;;;;18.70;8.07;;;;;;;;;;10489077;28;20157;-79
2023/12/02 07:23:36;;;;;;;18.00;8.23;;;;;;;;;;10493660;28;20025;-82
2023/12/02 07:28:37;;;;;;;17.07;6.87;;;;;;;;;;10470366;28;20094;-81
2023/12/02 07:33:38;;;;;;;23.27;9.00;;;;;;;;;;10505073;28;20473;-82
2023/12/02 07:38:40;;;;;;;20.97;9.43;;;;;;;;;;10487755;28;20514;-79
2023/12/02 07:43:41;;;;;;;22.93;11.20;;;;;;;;;;10508487;28;20048;-79
2023/12/02 07:48:42;;;;;;;27.47;11.03;;;;;;;;;;10517215;28;20119;-82
2023/12/02 07:53:50;;;;;;;27.17;11.47;;;;;;;;;;10475252;28;20131;-81
2023/12/02 07:58:51;;;;;;;27.07;11.67;;;;;;;;;;10492517;28;20111;-80
2023/12/02 08:03:52;;;;;;;26.10;11.70;;;;;;;;;;10494136;28;20171;-79
2023/12/02 08:08:53;;;;;;;28.63;11.00;;;;;;;;;;10486878;28;20025;-81
2023/12/02 08:13:54;;;;;;;35.03;14.13;;;;;;;;;;10478715;28;20049;-82
2023/12/02 08:18:56;;;;;;;26.70;12.37;;;;;;;;;;10497794;28;20090;-79
2023/12/02 08:23:57;;;;;;;30.50;13.67;;;;;;;;;;10495677;28;20024;-79
2023/12/02 08:28:58;;;;;;;38.03;16.00;;;;;;;;;;10499678;28;20064;-81
2023/12/02 08:33:59;;;;;;;41.67;16.53;;;;;;;;;;10483903;28;20057;-79
2023/12/02 08:39:06;;;;;;;32.10;13.83;;;;;;;;;;10497631;28;20131;-79
2023/12/02 08:44:08;;;;;;;36.43;16.40;;;;;;;;;;10490901;28;20106;-79
2023/12/02 08:49:09;;;;;;;40.33;16.87;;;;;;;;;;10501259;28;20029;-82
2023/12/02 08:54:10;;;;;;;36.80;16.67;;;;;;;;;;10493675;28;20119;-79
2023/12/02 08:59:12;;;;;;;41.93;19.37;;;;;;;;;;10501301;28;20073;-79
2023/12/02 09:04:13;;;;;;;39.37;16.83;;;;;;;;;;10490639;28;20111;-79
2023/12/02 09:09:14;;;;;;;44.47;18.77;;;;;;;;;;10489546;28;20040;-79
2023/12/02 09:14:15;;;;;;;43.47;18.90;;;;;;;;;;10501816;28;20123;-79
2023/12/02 09:19:35;;;;;;;35.27;16.80;;;;;;;;;;10504806;28;20040;-81
2023/12/02 09:24:45;;;;;;;43.73;19.50;;;;;;;;;;10497105;28;20038;-81
2023/12/02 09:29:47;;;;;;;45.90;20.70;;;;;;;;;;10489866;28;20095;-79
2023/12/02 09:34:57;;;;;;;38.17;17.97;;;;;;;;;;10474411;28;20193;-81
2023/12/02 09:40:31;;;;;;;48.37;19.33;;;;;;;;;;10463342;28;20033;-80
2023/12/02 09:45:40;;;;;;;44.33;21.13;;;;;;;;;;10437481;28;20052;-79
2023/12/02 09:50:48;;;;;;;39.43;19.50;;;;;;;;;;10505627;28;20040;-78
2023/12/02 09:55:59;;;;;;;40.23;18.33;;;;;;;;;;10440942;28;20131;-81
2023/12/02 10:01:05;;;;;;;45.60;20.73;;;;;;;;;;10488380;28;20047;-78
2023/12/02 10:06:09;;;;;;;55.83;21.45;;;;;;;;;;10480901;28;20493;-77
2023/12/02 10:11:36;;;;;;;50.90;21.13;;;;;;;;;;10500806;28;20025;-79
2023/12/02 10:16:39;;;;;;;48.97;20.57;;;;;;;;;;10484868;28;20292;-78
2023/12/02 10:21:44;;;;;;;50.47;23.33;;;;;;;;;;10487745;28;20025;-79
2023/12/02 10:26:54;;;;;;;47.40;19.48;;;;;;;;;;10491800;28;20064;-78
2023/12/02 10:31:55;;;;;;;43.23;18.93;;;;;;;;;;10483636;28;20086;-81
2023/12/02 10:36:58;;;;;;;47.50;21.30;;;;;;;;;;10491156;28;20036;-80
2023/12/02 10:42:01;;;;;;;38.23;18.30;;;;;;;;;;10492729;28;20025;-80
2023/12/02 10:47:04;;;;;;;47.87;20.40;;;;;;;;;;10478483;28;20056;-79
2023/12/02 10:52:07;;;;;;;39.33;16.73;;;;;;;;;;10474540;28;20387;-80
2023/12/02 10:57:12;;;;;;;44.87;19.33;;;;;;;;;;10498256;28;20036;-81
2023/12/02 11:02:22;;;;;;;44.30;17.10;;;;;;;;;;10479304;28;20036;-79
2023/12/02 11:07:24;;;;;;;44.33;18.80;;;;;;;;;;10488215;28;20032;-80
2023/12/02 11:12:32;;;;;;;42.20;17.97;;;;;;;;;;10485588;28;20044;-81
2023/12/02 11:18:00;;;;;;;47.70;20.57;;;;;;;;;;10477545;28;20127;-81
2023/12/02 11:23:40;;;;;;;39.10;17.63;;;;;;;;;;10480471;28;20060;-80
2023/12/02 11:29:01;;;;;;;38.10;17.07;;;;;;;;;;10473472;28;20063;-80
2023/12/02 11:34:13;;;;;;;36.07;16.67;;;;;;;;;;10472050;28;20057;-81
2023/12/02 11:39:21;;;;;;;41.57;18.13;;;;;;;;;;10478621;28;20615;-80
2023/12/02 11:44:36;;;;;;;46.20;18.93;;;;;;;;;;10470276;28;20056;-81
2023/12/02 11:49:47;;;;;;;39.77;18.60;;;;;;;;;;10482590;28;20776;-80
2023/12/02 11:55:08;;;;;;;39.17;18.43;;;;;;;;;;10481255;28;20052;-81
2023/12/02 12:00:13;;;;;;;37.43;17.73;;;;;;;;;;10495148;28;20066;-80
2023/12/02 12:05:18;;;;;;;41.60;19.02;;;;;;;;;;10480115;28;20123;-81
2023/12/02 12:10:24;;;;;;;44.63;19.13;;;;;;;;;;10494272;28;20028;-80
2023/12/02 12:15:26;;;;;;;44.73;19.47;;;;;;;;;;10485631;28;20117;-81
2023/12/02 12:20:27;;;;;;;38.80;18.00;;;;;;;;;;10480089;28;20029;-80
2023/12/02 12:25:31;;;;;;;39.97;18.50;;;;;;;;;;10503820;28;20029;-81
2023/12/02 12:30:52;;;;;;;45.07;19.60;;;;;;;;;;10503580;28;20033;-80
2023/12/02 12:35:54;;;;;;;44.10;18.13;;;;;;;;;;10499656;28;20031;-81
2023/12/02 12:40:56;;;;;;;44.10;19.17;;;;;;;;;;10494604;28;20147;-78
2023/12/02 12:45:58;;;;;;;40.00;19.07;;;;;;;;;;10471878;28;20060;-78
2023/12/02 12:51:01;;;;;;;46.80;20.50;;;;;;;;;;10480048;28;20120;-78
2023/12/02 12:56:07;;;;;;;48.57;20.00;;;;;;;;;;10486503;28;20397;-79
2023/12/02 13:01:09;;;;;;;45.20;21.02;;;;;;;;;;10466943;28;20037;-79
2023/12/02 13:06:17;;;;;;;40.07;18.63;;;;;;;;;;10481578;28;20037;-79
2023/12/02 13:11:21;;;;;;;38.00;18.67;;;;;;;;;;10468844;28;20175;-80
2023/12/02 13:16:26;;;;;;;42.63;18.83;;;;;;;;;;10429905;28;20048;-79
2023/12/02 13:21:27;;;;;;;41.73;20.03;;;;;;;;;;10432855;28;20036;-79
2023/12/02 13:26:32;;;;;;;51.73;21.33;;;;;;;;;;10466226;28;20025;-79
2023/12/02 13:31:40;;;;;;;41.60;17.83;;;;;;;;;;10423582;28;20448;-80
2023/12/02 13:36:44;;;;;;;45.73;20.33;;;;;;;;;;10476718;28;20032;-79
2023/12/02 13:41:47;;;;;;;43.87;19.20;;;;;;;;;;10426585;28;20083;-79
2023/12/02 13:46:51;;;;;;;41.17;19.63;;;;;;;;;;10485093;28;20570;-79
2023/12/02 13:52:00;;;;;;;46.67;19.70;;;;;;;;;;10493907;28;20096;-80
2023/12/02 13:57:11;;;;;;;41.37;19.30;;;;;;;;;;10486679;28;20033;-79
2023/12/02 14:02:12;;;;;;;49.63;20.73;;;;;;;;;;10489096;28;20074;-78
2023/12/02 14:07:22;;;;;;;45.77;19.87;;;;;;;;;;10466955;28;20624;-80
2023/12/02 14:12:36;;;;;;;48.17;22.47;;;;;;;;;;10489832;28;20043;-79
2023/12/02 14:17:52;;;;;;;41.00;19.77;;;;;;;;;;10484818;28;20127;-78
2023/12/02 14:23:23;;;;;;;48.77;21.20;;;;;;;;;;10489464;28;20032;-79
2023/12/02 14:28:42;;;;;;;49.97;23.27;;;;;;;;;;10400774;28;20079;-79
2023/12/02 14:33:58;;;;;;;96.07;40.30;;;;;;;;;;10489470;28;20037;-79
2023/12/02 14:39:07;;;;;;;48.15;21.33;;;;;;;;;;10490087;28;20420;-79
2023/12/02 14:44:27;;;;;;;47.67;21.00;;;;;;;;;;10489454;28;20048;-79
2023/12/02 14:49:38;;;;;;;47.57;22.97;;;;;;;;;;10476392;28;20025;-80
2023/12/02 14:54:44;;;;;;;49.07;20.93;;;;;;;;;;10489879;28;20068;-80
2023/12/02 14:59:52;;;;;;;46.80;22.43;;;;;;;;;;10478644;28;20031;-79
2023/12/02 15:04:53;;;;;;;48.00;22.97;;;;;;;;;;10489376;28;20028;-79
2023/12/02 15:09:55;;;;;;;50.73;21.57;;;;;;;;;;10489161;28;20025;-80
2023/12/02 15:14:56;;;;;;;46.60;22.13;;;;;;;;;;10488908;28;20043;-78
2023/12/02 15:19:57;;;;;;;55.53;23.00;;;;;;;;;;10489478;28;20101;-80
2023/12/02 15:24:58;;;;;;;61.33;24.77;;;;;;;;;;10489372;28;20027;-79
2023/12/02 15:29:59;;;;;;;61.40;27.57;;;;;;;;;;10495861;28;20035;-80
2023/12/02 15:35:00;;;;;;;56.63;27.37;;;;;;;;;;10496767;28;20484;-79
2023/12/02 15:40:01;;;;;;;65.83;30.57;;;;;;;;;;10496389;28;20112;-79
2023/12/02 15:45:03;;;;;;;69.70;31.77;;;;;;;;;;10496172;28;20048;-79
2023/12/02 15:50:04;;;;;;;70.93;29.77;;;;;;;;;;10495929;28;20376;-79
2023/12/02 15:55:06;;;;;;;67.40;30.63;;;;;;;;;;10482579;28;20032;-79
2023/12/02 16:00:07;;;;;;;72.17;32.90;;;;;;;;;;10495695;28;20538;-79
2023/12/02 16:05:12;;;;;;;68.10;31.30;;;;;;;;;;10495549;28;20103;-78
2023/12/02 16:10:13;;;;;;;74.22;34.33;;;;;;;;;;10495306;28;20442;-79
2023/12/02 16:15:15;;;;;;;83.97;37.37;;;;;;;;;;10495013;28;20059;-79
2023/12/02 16:20:16;;;;;;;77.90;35.03;;;;;;;;;;10495202;28;20024;-80
2023/12/02 16:25:20;;;;;;;78.70;35.93;;;;;;;;;;10494502;28;20024;-79
2023/12/02 16:30:21;;;;;;;89.57;39.50;;;;;;;;;;10495021;28;20032;-81
2023/12/02 16:35:22;;;;;;;98.53;41.20;;;;;;;;;;10494004;28;20041;-79
2023/12/02 16:40:23;;;;;;;95.73;41.07;;;;;;;;;;10493946;28;20472;-79
2023/12/02 16:45:25;;;;;;;98.40;40.87;;;;;;;;;;10493661;28;20048;-79
2023/12/02 16:50:30;;;;;;;100.03;43.50;;;;;;;;;;10494459;28;20582;-79
2023/12/02 16:55:34;;;;;;;102.70;43.50;;;;;;;;;;10493831;28;20048;-79
2023/12/02 17:00:36;;;;;;;101.17;42.57;;;;;;;;;;10493577;28;20049;-79
2023/12/02 17:05:37;;;;;;;107.17;43.50;;;;;;;;;;10493771;28;20032;-79
2023/12/02 17:10:44;;;;;;;107.47;44.33;;;;;;;;;;10493128;28;20131;-80
2023/12/02 17:15:52;;;;;;;99.80;42.47;;;;;;;;;;10493459;28;20032;-80
2023/12/02 17:20:53;;;;;;;104.90;43.13;;;;;;;;;;10492566;28;20067;-79
2023/12/02 17:25:55;;;;;;;90.90;41.67;;;;;;;;;;10491930;28;20041;-79
2023/12/02 17:30:56;;;;;;;103.20;41.93;;;;;;;;;;10492170;28;20044;-80
2023/12/02 17:35:57;;;;;;;99.57;43.10;;;;;;;;;;10491889;28;20047;-79
2023/12/02 17:40:59;;;;;;;102.17;42.77;;;;;;;;;;10492590;28;20032;-79
2023/12/02 17:46:00;;;;;;;114.37;45.20;;;;;;;;;;10491066;28;20052;-80
2023/12/02 17:51:01;;;;;;;109.40;45.93;;;;;;;;;;10490073;28;20810;-79
2023/12/02 17:56:02;;;;;;;110.47;44.47;;;;;;;;;;10483078;28;20047;-79
2023/12/02 18:01:03;;;;;;;122.87;46.77;;;;;;;;;;10490763;28;20032;-80
2023/12/02 18:06:04;;;;;;;116.23;44.93;;;;;;;;;;10491058;28;20377;-79
2023/12/02 18:11:05;;;;;;;108.73;41.47;;;;;;;;;;10490915;28;20103;-78
2023/12/02 18:16:06;;;;;;;98.30;40.57;;;;;;;;;;10485732;28;20106;-78
2023/12/02 18:21:07;;;;;;;100.87;38.43;;;;;;;;;;10490853;28;20542;-78
2023/12/02 18:26:08;;;;;;;98.63;37.67;;;;;;;;;;10490413;28;20040;-79
2023/12/02 18:31:09;;;;;;;91.30;34.83;;;;;;;;;;10489694;28;20036;-78
2023/12/02 18:36:10;;;;;;;79.83;29.87;;;;;;;;;;10489218;28;20036;-78
2023/12/02 18:41:11;;;;;;;84.10;30.03;;;;;;;;;;10490008;28;20032;-80
2023/12/02 18:46:12;;;;;;;83.20;27.90;;;;;;;;;;10490393;28;20458;-78
2023/12/02 18:51:13;;;;;;;74.20;26.43;;;;;;;;;;10489502;28;20025;-78
2023/12/02 18:56:16;;;;;;;80.47;29.03;;;;;;;;;;10489626;28;20037;-80
2023/12/02 19:01:17;;;;;;;79.67;28.20;;;;;;;;;;10489315;28;20448;-78
2023/12/02 19:06:18;;;;;;;72.80;27.30;;;;;;;;;;10488775;28;20028;-78
2023/12/02 19:11:19;;;;;;;78.77;25.57;;;;;;;;;;10471032;28;20460;-78
2023/12/02 19:16:20;;;;;;;80.90;28.83;;;;;;;;;;10489346;28;20115;-78
2023/12/02 19:21:21;;;;;;;76.10;25.80;;;;;;;;;;10489774;28;20071;-79
2023/12/02 19:26:25;;;;;;;81.37;26.80;;;;;;;;;;10489317;28;20037;-78
2023/12/02 19:31:26;;;;;;;61.00;24.07;;;;;;;;;;10488945;28;20067;-79
2023/12/02 19:36:27;;;;;;;65.37;26.47;;;;;;;;;;10475573;28;20036;-78
2023/12/02 19:41:28;;;;;;;60.17;22.23;;;;;;;;;;10488774;28;20472;-78
2023/12/02 19:46:30;;;;;;;60.80;22.50;;;;;;;;;;10487557;28;20048;-78
2023/12/02 19:51:37;;;;;;;60.30;22.37;;;;;;;;;;10488520;28;20071;-78
2023/12/02 19:56:38;;;;;;;57.00;21.77;;;;;;;;;;10469736;28;20052;-80
2023/12/02 20:01:46;;;;;;;54.33;21.17;;;;;;;;;;10488663;28;20032;-78
2023/12/02 20:06:48;;;;;;;62.80;24.10;;;;;;;;;;10488541;28;20415;-78
2023/12/02 20:11:49;;;;;;;52.63;20.00;;;;;;;;;;10488268;28;20040;-78
2023/12/02 20:16:50;;;;;;;61.67;22.90;;;;;;;;;;10494708;28;20480;-78
2023/12/02 20:21:51;;;;;;;62.50;22.63;;;;;;;;;;10494956;28;20040;-78
2023/12/02 20:26:52;;;;;;;57.27;25.07;;;;;;;;;;10477285;28;20074;-78
2023/12/02 20:31:54;;;;;;;53.87;19.70;;;;;;;;;;10495273;28;20063;-78
2023/12/02 20:36:57;;;;;;;55.47;21.33;;;;;;;;;;10494396;28;20023;-79
2023/12/02 20:41:58;;;;;;;62.80;21.87;;;;;;;;;;10493905;28;20484;-79
2023/12/02 20:47:00;;;;;;;61.43;22.70;;;;;;;;;;10484874;28;20481;-78
2023/12/02 20:52:01;;;;;;;51.00;21.10;;;;;;;;;;10490086;28;20028;-78
2023/12/02 20:57:04;;;;;;;47.87;20.63;;;;;;;;;;10476045;28;20037;-78
2023/12/02 21:02:05;;;;;;;55.33;20.83;;;;;;;;;;10493061;28;20032;-78
2023/12/02 21:07:06;;;;;;;49.47;19.67;;;;;;;;;;10475635;28;20036;-80
2023/12/02 21:12:07;;;;;;;56.10;21.23;;;;;;;;;;10494047;28;20081;-78
2023/12/02 21:17:08;;;;;;;52.73;19.97;;;;;;;;;;10492080;28;20032;-80
2023/12/02 21:22:16;;;;;;;47.97;19.43;;;;;;;;;;10475169;28;20473;-79
2023/12/02 21:27:17;;;;;;;51.13;20.70;;;;;;;;;;10492547;28;20135;-78
2023/12/02 21:32:22;;;;;;;48.77;20.40;;;;;;;;;;10493236;28;20436;-80
2023/12/02 21:37:23;;;;;;;58.90;21.85;;;;;;;;;;10492934;28;20075;-78
2023/12/02 21:42:24;;;;;;;61.47;22.73;;;;;;;;;;10491728;28;20074;-79
2023/12/02 21:47:25;;;;;;;55.13;19.27;;;;;;;;;;10472975;28;20067;-78
2023/12/02 21:52:28;;;;;;;52.73;21.67;;;;;;;;;;10491980;28;20494;-78
2023/12/02 21:57:29;;;;;;;56.83;21.70;;;;;;;;;;10491025;28;20036;-78
2023/12/02 22:02:36;;;;;;;51.27;22.27;;;;;;;;;;10470050;28;20029;-78
2023/12/02 22:07:38;;;;;;;67.20;26.13;;;;;;;;;;10460064;28;20040;-78
2023/12/02 22:12:41;;;;;;;66.23;26.53;;;;;;;;;;10455748;28;20071;-79
2023/12/02 22:17:43;;;;;;;64.00;26.00;;;;;;;;;;10473075;28;20047;-78
2023/12/02 22:22:49;;;;;;;69.43;25.67;;;;;;;;;;10469918;28;20025;-78
2023/12/02 22:27:56;;;;;;;72.93;26.63;;;;;;;;;;10466836;28;20037;-78
2023/12/02 22:32:58;;;;;;;76.30;25.83;;;;;;;;;;10482176;28;20039;-79
2023/12/02 22:37:59;;;;;;;70.53;25.17;;;;;;;;;;10489412;28;20086;-79
2023/12/02 22:43:04;;;;;;;65.17;26.33;;;;;;;;;;10487050;28;20075;-78
2023/12/02 22:48:28;;;;;;;72.10;25.83;;;;;;;;;;10498597;28;20048;-78
2023/12/02 22:53:30;;;;;;;69.77;26.60;;;;;;;;;;10475306;28;20048;-78
2023/12/02 22:58:35;;;;;;;70.43;24.83;;;;;;;;;;10487605;28;20042;-78
2023/12/02 23:03:37;;;;;;;117.63;44.33;;;;;;;;;;10473695;28;20499;-79
2023/12/02 23:08:40;;;;;;;83.20;30.50;;;;;;;;;;10485546;28;20064;-78
2023/12/02 23:13:47;;;;;;;139.27;66.80;;;;;;;;;;10488175;28;20033;-78
2023/12/02 23:18:49;;;;;;;97.27;34.73;;;;;;;;;;10467213;28;20021;-78
2023/12/02 23:23:50;;;;;;;185.47;64.43;;;;;;;;;;10478547;28;20056;-78
2023/12/02 23:28:52;;;;;;;139.57;51.07;;;;;;;;;;10487363;28;20493;-78
2023/12/02 23:33:53;;;;;;;84.90;29.07;;;;;;;;;;10486283;28;20044;-78
2023/12/02 23:38:56;;;;;;;87.40;30.03;;;;;;;;;;10484647;28;20029;-78
2023/12/02 23:43:57;;;;;;;115.77;40.40;;;;;;;;;;10487661;28;20068;-78
2023/12/02 23:48:58;;;;;;;95.00;34.67;;;;;;;;;;10483872;28;20028;-78
2023/12/02 23:53:59;;;;;;;99.40;33.07;;;;;;;;;;10496651;28;20387;-78
2023/12/02 23:59:00;;;;;;;94.87;34.20;;;;;;;;;;10487281;28;20029;-79
